Time;durP1;ratioP1;P1;durP2;ratioP2;P2;SDS_P1;SDS_P2;PMS_P1;PMS_P2;Temp;Humidity;BMP_temperature;BMP_pressure;BME280_temperature;BME280_humidity;BME280_pressure;Samples;Min_cycle;Max_cycle;Signal;HPM_P1;HPM_P2
2022/04/26 03:36:38;;;;;;;;;1.00;0.00;;;;;18.67;46.52;101775.56;5111610;28;9396;-69
2022/04/26 03:39:04;;;;;;;;;0.00;0.00;;;;;18.68;46.33;101783.50;5111926;28;9344;-69
2022/04/26 03:41:30;;;;;;;;;0.00;0.00;;;;;18.67;46.42;101776.44;5110968;28;9235;-70
2022/04/26 03:43:56;;;;;;;;;2.75;1.00;;;;;18.66;46.46;101776.44;5111601;28;8870;-69
2022/04/26 03:46:21;;;;;;;;;1.00;1.00;;;;;18.67;46.22;101780.88;5110838;28;9382;-69
2022/04/26 03:48:46;;;;;;;;;0.00;0.00;;;;;18.66;46.60;101773.81;5110147;28;8959;-69
2022/04/26 03:51:11;;;;;;;;;0.00;0.00;;;;;18.66;46.53;101784.38;5111331;28;8825;-69
2022/04/26 03:53:37;;;;;;;;;0.00;0.00;;;;;18.67;46.27;101783.50;5110922;28;9588;-69
2022/04/26 03:56:02;;;;;;;;;2.00;1.00;;;;;18.65;46.42;101778.19;5111451;28;8810;-71
2022/04/26 03:58:28;;;;;;;;;0.75;0.75;;;;;18.65;46.58;101777.31;5111975;28;8789;-69
2022/04/26 04:00:54;;;;;;;;;0.25;0.25;;;;;18.63;46.19;101779.94;5107108;28;9654;-69
2022/04/26 04:03:19;;;;;;;;;0.00;0.00;;;;;18.64;46.63;101781.72;5091201;28;9531;-70
2022/04/26 04:05:44;;;;;;;;;0.00;0.00;;;;;18.64;46.59;101779.06;5090836;28;8798;-69
2022/04/26 04:08:10;;;;;;;;;1.00;1.00;;;;;18.64;46.23;101779.06;5090353;28;8855;-70
2022/04/26 04:10:35;;;;;;;;;0.67;0.67;;;;;18.64;46.31;101784.38;5091234;28;8783;-70
2022/04/26 04:13:00;;;;;;;;;0.00;0.00;;;;;18.65;46.61;101786.13;5095972;28;8797;-69
2022/04/26 04:15:25;;;;;;;;;1.00;1.00;;;;;18.65;46.90;101782.59;5110361;28;8825;-69
2022/04/26 04:17:51;;;;;;;;;0.00;0.00;;;;;18.64;46.75;101787.00;5110362;28;8793;-69
2022/04/26 04:20:16;;;;;;;;;1.00;0.67;;;;;18.64;46.55;101788.75;5111069;28;8816;-69
2022/04/26 04:22:41;;;;;;;;;1.25;1.00;;;;;18.65;46.47;101794.06;5110348;28;8789;-69
2022/04/26 04:25:07;;;;;;;;;0.00;0.00;;;;;18.64;46.59;101796.69;5110282;28;8790;-69
2022/04/26 04:27:32;;;;;;;;;1.00;1.00;;;;;18.64;46.52;101794.06;5110460;28;8801;-68
2022/04/26 04:30:02;;;;;;;;;1.75;1.00;;;;;18.64;46.53;101794.06;5109794;28;8801;-69
2022/04/26 04:32:28;;;;;;;;;1.00;1.00;;;;;18.64;46.60;101796.69;5110436;28;8895;-69
2022/04/26 04:34:53;;;;;;;;;0.33;0.33;;;;;18.62;46.55;101799.38;5110194;28;9498;-69
2022/04/26 04:37:18;;;;;;;;;1.00;1.00;;;;;18.61;46.61;101802.88;5109983;28;9480;-69
2022/04/26 04:39:44;;;;;;;;;0.00;0.00;;;;;18.61;46.48;101810.81;5110058;28;8774;-69
2022/04/26 04:42:09;;;;;;;;;1.25;1.25;;;;;18.61;46.66;101812.56;5110242;28;8774;-69
2022/04/26 04:44:34;;;;;;;;;0.50;0.50;;;;;18.60;46.67;101822.25;5109953;28;8761;-68
2022/04/26 04:47:00;;;;;;;;;0.00;0.00;;;;;18.62;46.47;101819.63;5110459;28;8766;-68
2022/04/26 04:49:25;;;;;;;;;2.00;1.00;;;;;18.62;46.51;101827.56;5110314;28;8777;-68
2022/04/26 04:51:50;;;;;;;;;2.67;1.33;;;;;18.62;46.45;101832.84;5109654;28;8781;-69
2022/04/26 04:54:16;;;;;;;;;1.00;1.00;;;;;18.61;46.46;101831.09;5110804;28;8944;-69
2022/04/26 04:56:41;;;;;;;;;1.00;1.00;;;;;18.59;46.64;101830.22;5110029;28;8749;-69
2022/04/26 04:59:07;;;;;;;;;1.00;1.00;;;;;18.59;46.52;101835.50;5110840;28;8786;-69
2022/04/26 05:01:32;;;;;;;;;1.00;1.00;;;;;18.61;46.82;101849.59;5101096;28;9569;-69
2022/04/26 05:03:57;;;;;;;;;1.00;1.00;;;;;18.60;46.41;101847.81;5089098;28;8790;-69
2022/04/26 05:06:23;;;;;;;;;0.00;0.00;;;;;18.59;46.54;101846.97;5090016;28;8787;-69
2022/04/26 05:08:48;;;;;;;;;0.00;0.00;;;;;18.61;46.75;101854.88;5089741;28;8886;-68
2022/04/26 05:11:14;;;;;;;;;0.00;0.00;;;;;18.59;46.52;101854.00;5089443;28;8791;-69
2022/04/26 05:13:39;;;;;;;;;1.00;1.00;;;;;18.60;46.71;101859.28;5100794;28;8786;-69
2022/04/26 05:16:04;;;;;;;;;1.00;1.00;;;;;18.60;46.73;101855.75;5109938;28;8805;-69
2022/04/26 05:18:30;;;;;;;;;2.00;2.00;;;;;18.60;46.53;101863.69;5109388;28;8821;-69
2022/04/26 05:21:01;;;;;;;;;1.00;1.00;;;;;18.58;46.69;101865.47;5110212;28;8762;-69
2022/04/26 05:26:10;;;;;;;;;0.25;0.25;;;;;18.59;46.47;101872.53;5109374;28;9454;-69
2022/04/26 05:28:35;;;;;;;;;2.75;2.00;;;;;18.55;46.66;101868.09;5110148;28;9385;-69
2022/04/26 05:31:03;;;;;;;;;1.00;1.00;;;;;18.57;46.67;101872.50;5108293;28;9531;-69
2022/04/26 05:33:28;;;;;;;;;3.75;1.00;;;;;18.60;46.77;101883.09;5110741;28;9513;-70
2022/04/26 05:35:54;;;;;;;;;1.00;1.00;;;;;18.56;46.43;101885.75;5113525;28;9559;-69
2022/04/26 05:38:19;;;;;;;;;1.00;1.00;;;;;18.60;46.66;101892.78;5114070;28;8908;-69
2022/04/26 05:40:45;;;;;;;;;1.00;1.00;;;;;18.54;46.74;101895.41;5112735;28;8800;-69
2022/04/26 05:43:13;;;;;;;;;1.75;1.75;;;;;18.55;46.57;101884.84;5113725;28;8782;-69
2022/04/26 05:45:38;;;;;;;;;2.00;2.00;;;;;18.55;46.65;101881.31;5113613;28;8844;-69
2022/04/26 05:48:04;;;;;;;;;2.50;2.50;;;;;18.57;46.98;101890.13;5112897;28;9540;-69
2022/04/26 05:50:30;;;;;;;;;1.00;1.00;;;;;18.54;46.53;101888.38;5114063;28;8808;-69
2022/04/26 05:52:55;;;;;;;;;0.75;0.75;;;;;18.56;46.80;101898.97;5113329;28;9315;-69
2022/04/26 05:55:20;;;;;;;;;1.00;1.00;;;;;18.55;46.63;101897.19;5113101;28;8808;-69
2022/04/26 05:57:46;;;;;;;;;2.00;1.00;;;;;18.55;46.50;101897.19;5113413;28;8773;-69
2022/04/26 06:00:13;;;;;;;;;1.00;1.00;;;;;18.54;46.50;101898.94;5113019;28;8780;-69
2022/04/26 06:02:42;;;;;;;;;2.00;0.50;;;;;18.58;46.54;101898.09;5095105;28;9535;-68
2022/04/26 06:05:08;;;;;;;;;1.75;1.00;;;;;18.56;46.71;101897.16;5092839;28;9476;-68
2022/04/26 06:07:34;;;;;;;;;1.00;1.00;;;;;18.57;46.67;101898.06;5092185;28;9478;-69
2022/04/26 06:10:01;;;;;;;;;3.00;3.00;;;;;18.56;46.73;101896.31;5092755;28;9533;-68
2022/04/26 06:12:26;;;;;;;;;2.00;1.00;;;;;18.56;46.85;101899.81;5093453;28;8778;-69
2022/04/26 06:14:53;;;;;;;;;1.50;1.50;;;;;18.56;46.54;101906.91;5112070;28;9494;-68
2022/04/26 06:17:18;;;;;;;;;1.50;1.50;;;;;18.56;46.65;101898.97;5113180;28;8765;-69
2022/04/26 06:19:44;;;;;;;;;1.75;1.00;;;;;18.58;46.81;101899.84;5112842;28;10137;-69
2022/04/26 06:22:09;;;;;;;;;2.00;2.00;;;;;18.55;46.73;101897.19;5112543;28;8832;-69
2022/04/26 06:24:34;;;;;;;;;3.00;2.00;;;;;18.56;46.61;101901.59;5113273;28;8912;-69
2022/04/26 06:26:59;;;;;;;;;2.75;2.75;;;;;18.55;46.67;101894.53;5112533;28;8786;-68
2022/04/26 06:29:25;;;;;;;;;2.75;1.50;;;;;18.54;46.60;101906.88;5112327;28;8797;-69
2022/04/26 06:31:50;;;;;;;;;2.75;2.75;;;;;18.56;46.69;101901.59;5112739;28;8801;-69
2022/04/26 06:34:16;;;;;;;;;0.75;0.75;;;;;18.57;46.47;101912.19;5112999;28;8794;-69
2022/04/26 06:36:41;;;;;;;;;1.00;1.00;;;;;18.58;46.65;101913.06;5112377;28;9527;-70
2022/04/26 06:39:07;;;;;;;;;2.00;2.00;;;;;18.59;47.07;101914.84;5104051;28;9395;-69
2022/04/26 06:41:32;;;;;;;;;2.00;1.25;;;;;18.56;46.84;101913.03;5091943;28;8802;-69
2022/04/26 06:43:57;;;;;;;;;1.50;1.50;;;;;18.56;46.71;101913.03;5089483;28;8930;-69
2022/04/26 06:46:22;;;;;;;;;1.00;1.00;;;;;18.57;47.04;101914.81;5091520;28;8803;-69
2022/04/26 06:48:49;;;;;;;;;1.00;1.00;;;;;18.58;46.84;101927.19;5091830;28;8842;-69
2022/04/26 06:51:15;;;;;;;;;1.67;1.67;;;;;18.60;47.07;101936.00;5091607;28;8776;-69
2022/04/26 06:53:40;;;;;;;;;1.00;1.00;;;;;18.56;46.88;101934.19;5090680;28;9346;-69
2022/04/26 06:56:05;;;;;;;;;1.00;1.00;;;;;18.57;46.81;101935.09;5092059;28;9573;-69
2022/04/26 06:58:33;;;;;;;;;2.00;2.00;;;;;18.56;46.88;101931.56;5091175;28;8775;-69
2022/04/26 07:00:59;;;;;;;;;1.25;1.25;;;;;18.57;46.96;101938.63;5091753;28;8811;-70
2022/04/26 07:03:25;;;;;;;;;1.50;1.50;;;;;18.61;46.79;101951.00;5089241;28;10186;-70
2022/04/26 07:05:53;;;;;;;;;2.75;2.75;;;;;18.59;46.66;101951.88;5091590;28;9462;-69
2022/04/26 07:08:19;;;;;;;;;1.00;1.00;;;;;18.61;46.90;101947.47;5092086;28;8815;-69
2022/04/26 07:10:44;;;;;;;;;1.00;1.00;;;;;18.61;46.74;101943.06;5090628;28;10220;-69
2022/04/26 07:13:10;;;;;;;;;2.00;1.00;;;;;18.61;46.92;101943.06;5095609;28;8785;-69
2022/04/26 07:15:35;;;;;;;;;2.00;2.00;;;;;18.60;46.83;101959.81;5112182;28;8797;-69
2022/04/26 07:18:00;;;;;;;;;1.50;1.50;;;;;18.59;46.74;101958.06;5111259;28;8944;-69
2022/04/26 07:20:28;;;;;;;;;1.75;1.75;;;;;18.60;47.03;101958.91;5094945;28;8819;-69
2022/04/26 07:22:53;;;;;;;;;0.75;0.75;;;;;18.64;47.01;101966.00;5089645;28;8807;-69
2022/04/26 07:25:18;;;;;;;;;1.75;1.75;;;;;18.61;47.85;101961.59;5105239;28;9484;-72
2022/04/26 07:27:44;;;;;;;;;2.50;1.50;;;;;18.72;48.42;101962.53;5111196;28;8758;-70
2022/04/26 07:30:09;;;;;;;;;3.00;2.00;;;;;18.83;49.73;101965.22;5111687;28;8785;-72
2022/04/26 07:35:18;;;;;;;;;3.50;2.50;;;;;19.03;52.63;101966.22;5111731;28;8806;-72
2022/04/26 07:37:44;;;;;;;;;2.00;2.00;;;;;19.11;54.79;101975.09;5111626;28;9495;-69
2022/04/26 07:40:09;;;;;;;;;3.25;3.00;;;;;19.17;57.31;101976.88;5110934;28;8770;-69
2022/04/26 07:42:35;;;;;;;;;6.00;4.00;;;;;19.19;58.84;101965.44;5111930;28;8883;-69
2022/04/26 07:45:00;;;;;;;;;3.25;3.25;;;;;19.24;57.93;101970.72;5111237;28;8873;-69
2022/04/26 07:47:26;;;;;;;;;3.00;2.75;;;;;19.26;57.53;101966.34;5110987;28;8809;-70
2022/04/26 07:49:55;;;;;;;;;3.50;3.50;;;;;19.27;58.23;101968.97;5111380;28;8896;-68
2022/04/26 07:52:21;;;;;;;;;5.00;4.00;;;;;19.27;58.25;101974.25;5111088;28;9524;-69
2022/04/26 07:54:47;;;;;;;;;3.75;3.50;;;;;19.27;58.51;101973.41;5110068;28;9423;-70
2022/04/26 07:57:12;;;;;;;;;3.00;3.00;;;;;19.28;59.58;101973.41;5110897;28;9693;-70
2022/04/26 07:59:38;;;;;;;;;3.25;2.50;;;;;19.26;58.73;101980.47;5110582;28;8816;-69
2022/04/26 08:02:06;;;;;;;;;5.00;5.00;;;;;19.24;60.25;101981.31;5097474;28;8796;-69
2022/04/26 08:04:32;;;;;;;;;4.50;3.50;;;;;19.25;59.68;101983.97;5091041;28;8768;-70
2022/04/26 08:06:57;;;;;;;;;4.75;4.50;;;;;19.24;59.03;101997.19;5089777;28;9538;-71
2022/04/26 08:09:22;;;;;;;;;5.75;4.00;;;;;19.22;58.98;101991.91;5091019;28;8780;-70
2022/04/26 08:11:49;;;;;;;;;4.25;3.75;;;;;19.22;58.25;101985.72;5090384;28;8792;-70
2022/04/26 08:14:14;;;;;;;;;5.00;3.75;;;;;19.25;57.90;101996.34;5105728;28;8862;-70
2022/04/26 08:16:40;;;;;;;;;4.75;4.75;;;;;19.23;57.72;101990.16;5111223;28;9474;-70
2022/04/26 08:19:05;;;;;;;;;3.75;3.75;;;;;19.24;57.21;101992.78;5110596;28;9567;-70
2022/04/26 08:21:31;;;;;;;;;4.50;3.00;;;;;19.23;57.46;101998.97;5110241;28;8773;-70
2022/04/26 08:29:24;;;;;;;;;3.00;3.00;;;;;19.23;56.27;101995.44;5110228;28;10067;-71
2022/04/26 08:31:49;;;;;;;;;4.50;3.50;;;;;19.25;56.13;101999.88;5110655;28;9384;-71
2022/04/26 08:34:14;;;;;;;;;4.25;4.25;;;;;19.25;55.62;102001.63;5110839;28;9537;-71
2022/04/26 08:36:40;;;;;;;;;4.50;4.50;;;;;19.25;55.81;102009.56;5109992;28;8916;-70
2022/04/26 08:39:05;;;;;;;;;5.50;4.50;;;;;19.26;55.23;102003.41;5110265;28;8797;-70
2022/04/26 08:41:30;;;;;;;;;4.00;3.00;;;;;19.23;54.69;102006.91;5110968;28;8777;-70
2022/04/26 08:43:55;;;;;;;;;5.50;3.75;;;;;19.23;54.92;102004.25;5109681;28;9589;-70
2022/04/26 08:46:21;;;;;;;;;4.00;4.00;;;;;19.27;54.74;102003.38;5111050;28;8801;-70
2022/04/26 08:51:30;;;;;;;;;4.50;3.00;;;;;19.31;54.11;102014.88;5111095;28;8773;-70
2022/04/26 08:53:56;;;;;;;;;4.00;4.00;;;;;19.29;54.34;102008.72;5110622;28;9405;-69
2022/04/26 08:56:21;;;;;;;;;4.00;4.00;;;;;19.26;53.74;102016.66;5110182;28;8794;-70
2022/04/26 08:58:48;;;;;;;;;5.75;3.00;;;;;19.28;53.74;102014.88;5110512;28;8798;-69
2022/04/26 09:01:19;;;;;;;;;3.00;3.00;;;;;19.27;53.67;102024.56;5104020;28;8864;-69
2022/04/26 09:03:54;;;;;;;;;5.00;4.50;;;;;19.32;53.18;102021.97;5089056;28;9552;-69
2022/04/26 09:06:21;;;;;;;;;4.00;4.00;;;;;19.31;53.21;102028.13;5089961;28;10366;-68
2022/04/26 09:08:48;;;;;;;;;4.00;4.00;;;;;19.29;52.73;102032.53;5091819;28;9602;-70
2022/04/26 09:11:27;;;;;;;;;4.00;4.00;;;;;19.31;52.45;102030.78;5093418;28;9629;-70
2022/04/26 09:13:54;;;;;;;;;5.00;5.00;;;;;19.29;52.52;102041.38;5106529;28;9547;-70
2022/04/26 09:16:21;;;;;;;;;3.00;3.00;;;;;19.28;52.22;102042.25;5114165;28;9568;-70
2022/04/26 09:19:01;;;;;;;;;4.50;3.50;;;;;19.30;52.25;102045.81;5113265;28;9575;-69
2022/04/26 09:21:28;;;;;;;;;6.00;5.00;;;;;19.31;52.38;102047.53;5114179;28;9481;-69
2022/04/26 09:24:02;;;;;;;;;3.00;3.00;;;;;19.28;51.69;102050.19;5113780;28;9519;-68
2022/04/26 09:26:39;;;;;;;;;3.75;3.75;;;;;19.27;51.75;102048.41;5113960;28;9595;-69
2022/04/26 09:29:06;;;;;;;;;3.00;3.00;;;;;19.26;51.74;102043.13;5113808;28;9543;-69
2022/04/26 09:31:36;;;;;;;;;3.75;3.50;;;;;19.30;51.77;102045.81;5113500;28;9522;-70
2022/04/26 09:34:11;;;;;;;;;5.00;3.00;;;;;19.32;51.46;102053.72;5113541;28;9649;-69
2022/04/26 09:36:45;;;;;;;;;4.25;4.00;;;;;19.34;51.46;102049.34;5114209;28;9563;-70
2022/04/26 09:39:17;;;;;;;;;3.75;3.25;;;;;19.34;51.30;102057.28;5113104;28;9631;-69
2022/04/26 09:41:48;;;;;;;;;4.25;4.25;;;;;19.37;51.19;102061.72;5113927;28;9539;-68
2022/04/26 09:44:13;;;;;;;;;3.00;3.00;;;;;19.37;51.14;102054.66;5114141;28;9617;-69
2022/04/26 09:46:54;;;;;;;;;4.25;3.00;;;;;19.40;50.81;102057.31;5113047;28;9757;-69
2022/04/26 09:49:24;;;;;;;;;4.25;4.25;;;;;19.42;50.91;102058.22;5114207;28;8880;-69
2022/04/26 09:51:54;;;;;;;;;2.75;2.75;;;;;19.45;50.71;102060.03;5113429;28;9546;-70
2022/04/26 09:54:20;;;;;;;;;4.75;3.00;;;;;19.43;50.52;102059.09;5112883;28;10366;-70
2022/04/26 09:56:47;;;;;;;;;4.75;3.75;;;;;19.46;50.40;102067.97;5113558;28;10292;-69
2022/04/26 09:59:15;;;;;;;;;4.25;4.00;;;;;19.43;50.29;102062.66;5113000;28;9539;-69
2022/04/26 10:01:42;;;;;;;;;4.25;4.25;;;;;19.41;50.39;102059.09;5103490;28;9564;-70
2022/04/26 10:04:09;;;;;;;;;2.75;2.75;;;;;19.45;49.89;102074.16;5093109;28;9638;-70
2022/04/26 10:06:40;;;;;;;;;5.00;4.00;;;;;19.46;49.77;102065.31;5091676;28;9580;-71
2022/04/26 10:09:07;;;;;;;;;3.50;3.00;;;;;19.46;49.75;102062.66;5093204;28;9535;-71
2022/04/26 10:11:35;;;;;;;;;5.25;4.25;;;;;19.48;49.28;102067.97;5092855;28;9312;-69
2022/04/26 10:14:06;;;;;;;;;3.50;3.50;;;;;19.48;48.87;102068.88;5105753;28;9539;-71
2022/04/26 10:16:33;;;;;;;;;3.00;3.00;;;;;19.49;48.70;102068.00;5113306;28;9407;-71
2022/04/26 10:19:07;;;;;;;;;3.00;3.00;;;;;19.48;48.80;102071.50;5112641;28;9527;-70
2022/04/26 10:21:41;;;;;;;;;3.00;3.00;;;;;19.46;48.54;102070.59;5104877;28;9552;-70
2022/04/26 10:24:23;;;;;;;;;4.00;2.75;;;;;19.43;48.36;102067.94;5092602;28;9490;-72
2022/04/26 10:26:50;;;;;;;;;4.00;3.00;;;;;19.43;48.06;102078.53;5092363;28;10404;-70
2022/04/26 10:29:18;;;;;;;;;4.00;2.75;;;;;19.42;48.60;102079.41;5090942;28;9526;-70
2022/04/26 10:31:57;;;;;;;;;3.75;3.00;;;;;19.44;48.23;102079.44;5092172;28;9628;-70
2022/04/26 10:34:26;;;;;;;;;3.00;3.00;;;;;19.45;48.39;102078.56;5091890;28;9410;-70
2022/04/26 10:37:20;;;;;;;;;3.00;3.00;;;;;19.43;48.14;102073.25;5092511;28;9402;-70
2022/04/26 10:39:58;;;;;;;;;3.50;3.50;;;;;19.47;48.12;102077.69;5081279;28;9418;-71
2022/04/26 10:42:33;;;;;;;;;3.50;3.50;;;;;19.50;47.87;102074.16;5091610;28;9595;-71
2022/04/26 10:45:10;;;;;;;;;3.25;3.00;;;;;19.50;47.91;102076.78;5091971;28;9467;-70
2022/04/26 10:47:35;;;;;;;;;3.00;3.00;;;;;19.49;47.87;102078.59;5092335;28;9393;-69
2022/04/26 10:50:02;;;;;;;;;4.00;3.00;;;;;19.50;47.66;102077.69;5089940;28;9556;-69
2022/04/26 10:52:35;;;;;;;;;2.25;2.25;;;;;19.55;47.58;102075.06;5092356;28;8934;-69
2022/04/26 10:55:03;;;;;;;;;3.75;3.50;;;;;19.58;47.52;102075.97;5092234;28;9667;-70
2022/04/26 10:57:30;;;;;;;;;3.00;3.00;;;;;19.54;47.44;102070.63;5091598;28;9498;-69
2022/04/26 11:00:11;;;;;;;;;3.00;3.00;;;;;19.54;47.11;102078.59;5090795;28;9554;-71
2022/04/26 11:02:42;;;;;;;;;3.00;3.00;;;;;19.52;47.35;102081.25;5090967;28;9548;-71
2022/04/26 11:05:11;;;;;;;;;4.25;4.25;;;;;19.53;47.06;102084.78;5091835;28;9792;-70
2022/04/26 11:07:42;;;;;;;;;6.00;4.00;;;;;19.58;46.84;102085.66;5092150;28;9593;-70
2022/04/26 11:10:09;;;;;;;;;4.00;4.00;;;;;19.57;46.96;102079.47;5089406;28;9492;-71
2022/04/26 11:12:40;;;;;;;;;3.75;3.75;;;;;19.58;47.26;102081.25;5093106;28;9498;-71
2022/04/26 11:15:11;;;;;;;;;3.00;3.00;;;;;19.58;47.19;102081.25;5111731;28;9705;-70
2022/04/26 11:17:37;;;;;;;;;3.00;2.00;;;;;19.64;46.78;102080.41;5110980;28;10372;-69
2022/04/26 11:20:10;;;;;;;;;4.00;2.00;;;;;19.62;46.67;102093.66;5093526;28;9486;-70
2022/04/26 11:22:43;;;;;;;;;3.00;3.00;;;;;19.62;46.94;102080.41;5091520;28;9551;-70
2022/04/26 11:28:11;;;;;;;;;4.00;3.75;;;;;19.58;46.63;102089.22;5091353;28;9677;-71
2022/04/26 11:30:40;;;;;;;;;3.25;3.00;;;;;19.59;46.83;102079.50;5089850;28;10377;-71
2022/04/26 11:33:13;;;;;;;;;2.75;2.25;;;;;19.60;46.29;102083.94;5090758;28;9655;-71
2022/04/26 11:35:39;;;;;;;;;3.00;3.00;;;;;19.59;46.49;102092.75;5091365;28;9565;-71
2022/04/26 11:38:11;;;;;;;;;4.00;4.00;;;;;19.61;46.38;102085.69;5090253;28;9476;-71
2022/04/26 11:40:41;;;;;;;;;2.25;2.25;;;;;19.59;45.99;102096.28;5091205;28;9629;-71
2022/04/26 11:43:08;;;;;;;;;3.00;3.00;;;;;19.60;46.01;102098.06;5090510;28;10554;-71
2022/04/26 11:45:34;;;;;;;;;1.50;1.50;;;;;19.60;46.06;102103.38;5090591;28;9458;-71
2022/04/26 11:48:05;;;;;;;;;2.00;2.00;;;;;19.58;45.90;102107.75;5090753;28;9390;-71
2022/04/26 11:50:31;;;;;;;;;4.25;4.00;;;;;19.60;45.75;102110.44;5089336;28;9488;-71
2022/04/26 11:53:16;;;;;;;;;1.50;1.50;;;;;19.57;45.94;102107.75;5089515;28;9656;-71
2022/04/26 11:55:57;;;;;;;;;2.00;2.00;;;;;19.59;45.74;102112.19;5090715;28;8818;-71
2022/04/26 11:58:34;;;;;;;;;3.00;3.00;;;;;19.61;45.48;102113.06;5088721;28;9622;-71
2022/04/26 12:01:10;;;;;;;;;2.00;1.75;;;;;19.61;45.73;102109.53;5094207;28;9678;-70
2022/04/26 12:03:46;;;;;;;;;4.25;3.75;;;;;19.60;45.63;102124.56;5090595;28;9451;-69
2022/04/26 12:06:13;;;;;;;;;3.50;2.25;;;;;19.60;45.75;102134.28;5089711;28;9629;-70
2022/04/26 12:08:50;;;;;;;;;3.25;3.25;;;;;19.61;45.69;102138.66;5088835;28;9615;-70
2022/04/26 12:11:21;;;;;;;;;3.00;3.00;;;;;19.60;45.52;102135.16;5090072;28;9787;-70
2022/04/26 12:14:16;;;;;;;;;2.00;2.00;;;;;19.61;45.59;102139.56;5089005;28;9751;-70
2022/04/26 12:16:47;;;;;;;;;2.50;2.50;;;;;19.61;45.51;102126.31;5088888;28;9605;-70
2022/04/26 12:19:12;;;;;;;;;3.25;3.25;;;;;19.61;45.66;102131.59;5090231;28;9684;-70
2022/04/26 12:21:52;;;;;;;;;3.25;3.25;;;;;19.61;45.44;102123.66;5089471;28;9640;-70
2022/04/26 12:24:22;;;;;;;;;2.50;2.50;;;;;19.62;45.53;102125.44;5090208;28;8922;-71
2022/04/26 12:27:10;;;;;;;;;2.25;2.00;;;;;19.62;45.35;102114.84;5090410;28;10324;-71
2022/04/26 12:29:36;;;;;;;;;2.75;2.75;;;;;19.65;45.33;102127.22;5090074;28;9531;-70
2022/04/26 12:32:08;;;;;;;;;3.25;2.75;;;;;19.67;45.35;102128.13;5089651;28;9467;-70
2022/04/26 12:34:33;;;;;;;;;4.00;4.00;;;;;19.66;45.44;102124.56;5089240;28;8815;-71
2022/04/26 12:37:08;;;;;;;;;2.50;2.50;;;;;19.68;45.10;102135.19;5088591;28;9665;-70
2022/04/26 12:39:48;;;;;;;;;2.00;2.00;;;;;19.68;45.34;102128.09;5090665;28;8760;-71
2022/04/26 12:42:26;;;;;;;;;2.00;2.00;;;;;19.67;45.16;102133.41;5089120;28;9486;-70
2022/04/26 12:44:55;;;;;;;;;2.25;2.25;;;;;19.67;45.25;102144.91;5090181;28;9541;-70
2022/04/26 12:52:58;;;;;;;;;3.25;3.25;;;;;19.95;43.79;102132.63;5088160;28;9547;-70
2022/04/26 12:55:32;;;;;;;;;2.00;2.00;;;;;19.86;44.13;102144.97;5089563;28;9742;-70
2022/04/26 12:58:08;;;;;;;;;1.75;1.75;;;;;19.90;44.70;102136.16;5089342;28;9744;-71
2022/04/26 13:00:39;;;;;;;;;1.75;1.75;;;;;19.85;44.60;102138.78;5090944;28;9541;-69
2022/04/26 13:03:06;;;;;;;;;4.50;4.50;;;;;19.86;44.80;102140.56;5088606;28;9606;-70
2022/04/26 13:05:37;;;;;;;;;3.25;3.25;;;;;19.85;44.46;102130.84;5089893;28;9814;-71
2022/04/26 13:08:02;;;;;;;;;3.25;3.00;;;;;19.84;44.39;102139.66;5089496;28;9765;-71
2022/04/26 13:10:28;;;;;;;;;2.00;2.00;;;;;19.83;44.28;102134.38;5089437;28;9685;-70
2022/04/26 13:12:53;;;;;;;;;3.00;3.00;;;;;19.81;44.27;102147.59;5087704;28;8810;-70
2022/04/26 13:15:23;;;;;;;;;2.00;2.00;;;;;19.83;44.11;102137.91;5089744;28;8831;-71
2022/04/26 13:17:49;;;;;;;;;4.00;3.00;;;;;19.85;43.99;102143.22;5087959;28;8835;-70
2022/04/26 13:20:14;;;;;;;;;2.75;2.75;;;;;19.86;43.83;102147.63;5090258;28;10370;-71
2022/04/26 13:22:39;;;;;;;;;1.00;1.00;;;;;19.87;43.83;102139.66;5088147;28;9476;-70
2022/04/26 13:25:06;;;;;;;;;2.25;2.25;;;;;19.90;43.91;102147.66;5088019;28;8831;-70
2022/04/26 13:27:32;;;;;;;;;2.00;2.00;;;;;19.90;43.96;102142.34;5088340;28;8824;-70
2022/04/26 13:29:58;;;;;;;;;2.50;2.50;;;;;19.92;43.54;102147.66;5089021;28;9494;-72
2022/04/26 13:32:24;;;;;;;;;1.75;1.75;;;;;19.96;43.54;102141.47;5089603;28;9722;-70
2022/04/26 13:34:50;;;;;;;;;3.50;3.50;;;;;19.97;43.58;102138.84;5089446;28;8800;-69
2022/04/26 13:37:17;;;;;;;;;2.00;2.00;;;;;19.96;43.57;102142.38;5089074;28;8760;-71
2022/04/26 13:39:45;;;;;;;;;4.00;3.00;;;;;20.03;43.38;102144.16;5089754;28;9504;-69
2022/04/26 13:42:14;;;;;;;;;0.25;0.25;;;;;20.03;43.33;102136.22;5089729;28;9379;-69
2022/04/26 13:44:40;;;;;;;;;3.00;3.00;;;;;20.00;43.43;102146.81;5087339;28;9605;-70
2022/04/26 13:47:07;;;;;;;;;3.50;2.25;;;;;20.01;43.36;102139.75;5089501;28;9541;-70
2022/04/26 13:49:34;;;;;;;;;2.00;2.00;;;;;20.02;43.04;102153.00;5089804;28;9486;-75
2022/04/26 13:52:03;;;;;;;;;3.00;2.00;;;;;20.04;43.16;102151.25;5088897;28;9498;-71
2022/04/26 13:54:29;;;;;;;;;2.00;2.00;;;;;20.00;43.51;102144.16;5091102;28;10320;-71
2022/04/26 13:56:55;;;;;;;;;3.25;3.25;;;;;20.04;43.42;102145.94;5092978;28;9407;-71
2022/04/26 13:59:22;;;;;;;;;2.25;2.25;;;;;20.01;43.34;102140.63;5092819;28;8784;-72
2022/04/26 14:01:48;;;;;;;;;2.00;2.00;;;;;19.99;43.65;102146.78;5104565;28;11375;-71
2022/04/26 14:04:16;;;;;;;;;2.00;2.00;;;;;20.03;43.28;102143.28;5113428;28;9563;-70
2022/04/26 14:06:41;;;;;;;;;1.75;1.75;;;;;20.06;43.02;102140.63;5113073;28;8774;-70
2022/04/26 14:09:06;;;;;;;;;2.00;2.00;;;;;20.10;41.75;102137.09;5113243;28;9757;-70
2022/04/26 14:11:32;;;;;;;;;2.00;2.00;;;;;20.07;42.15;102145.06;5113414;28;8782;-70
2022/04/26 14:22:09;;;;;;;;;1.50;1.50;;;;;20.15;41.89;102136.25;5091680;28;9531;-70
2022/04/26 14:24:35;;;;;;;;;1.00;1.00;;;;;20.15;42.43;102144.22;5091959;28;9596;-70
2022/04/26 14:27:01;;;;;;;;;2.00;2.00;;;;;20.15;42.74;102146.84;5091613;28;8796;-70
2022/04/26 14:29:26;;;;;;;;;1.75;1.75;;;;;20.14;42.75;102145.09;5092824;28;8896;-70
2022/04/26 14:31:52;;;;;;;;;3.25;3.00;;;;;20.15;42.71;102146.84;5091975;28;9706;-71
2022/04/26 14:34:17;;;;;;;;;1.50;1.50;;;;;20.16;42.55;102140.69;5090358;28;8819;-70
2022/04/26 14:36:42;;;;;;;;;2.50;2.50;;;;;20.17;42.80;102149.53;5092747;28;8826;-70
2022/04/26 14:39:08;;;;;;;;;2.75;2.75;;;;;20.18;42.90;102156.56;5091926;28;8780;-71
2022/04/26 14:41:34;;;;;;;;;2.00;2.00;;;;;20.18;42.96;102156.56;5091737;28;8779;-71
2022/04/26 14:43:59;;;;;;;;;2.00;2.00;;;;;20.21;42.84;102148.63;5090644;28;8796;-73
2022/04/26 14:46:25;;;;;;;;;3.00;2.00;;;;;20.21;42.78;102153.94;5092009;28;11698;-70
2022/04/26 14:48:50;;;;;;;;;2.00;2.00;;;;;20.17;41.83;102152.19;5091530;28;8776;-72
2022/04/26 14:51:16;;;;;;;;;3.25;3.25;;;;;20.17;41.74;102154.84;5092432;28;9569;-72
2022/04/26 14:53:41;;;;;;;;;2.00;2.00;;;;;20.20;41.98;102162.78;5091999;28;8788;-73
2022/04/26 14:56:09;;;;;;;;;1.00;1.00;;;;;20.20;41.91;102157.50;5091648;28;8882;-72
2022/04/26 14:58:35;;;;;;;;;1.00;1.00;;;;;20.19;42.12;102156.59;5092516;28;8824;-73
2022/04/26 15:01:00;;;;;;;;;2.00;2.00;;;;;20.21;41.73;102161.88;5096591;28;9539;-72
2022/04/26 15:03:27;;;;;;;;;3.25;2.00;;;;;20.25;41.58;102155.72;5111853;28;8774;-72
2022/04/26 15:05:53;;;;;;;;;1.00;1.00;;;;;20.24;41.66;102146.00;5111100;28;8834;-72
2022/04/26 15:11:02;;;;;;;;;1.00;1.00;;;;;20.24;41.46;102157.47;5112621;28;8784;-72
2022/04/26 15:18:55;;;;;;;;;1.50;1.25;;;;;20.26;41.50;102162.78;5091505;28;9587;-70
2022/04/26 15:21:20;;;;;;;;;1.00;1.00;;;;;20.32;41.78;102156.69;5092218;28;9473;-72
2022/04/26 15:23:45;;;;;;;;;2.50;2.50;;;;;20.32;41.80;102157.53;5091032;28;8780;-72
2022/04/26 15:26:11;;;;;;;;;1.00;1.00;;;;;20.32;41.39;102154.03;5092191;28;8779;-71
2022/04/26 15:28:38;;;;;;;;;2.00;1.25;;;;;20.28;41.76;102147.81;5092024;28;8776;-70
2022/04/26 15:31:04;;;;;;;;;2.00;2.00;;;;;20.33;41.46;102156.66;5090915;28;8768;-71
2022/04/26 15:33:29;;;;;;;;;2.50;2.50;;;;;20.32;41.82;102161.97;5092291;28;10293;-72
2022/04/26 15:35:56;;;;;;;;;1.50;1.50;;;;;20.31;41.68;102154.91;5091590;28;9484;-71
2022/04/26 15:38:27;;;;;;;;;1.00;1.00;;;;;20.34;41.99;102158.44;5091315;28;8764;-72
2022/04/26 15:40:54;;;;;;;;;3.25;2.00;;;;;20.36;41.63;102163.75;5091043;28;9559;-73
2022/04/26 15:43:23;;;;;;;;;1.75;1.75;;;;;20.38;41.55;102161.97;5091366;28;9568;-72
2022/04/26 15:45:48;;;;;;;;;1.75;1.75;;;;;20.35;41.38;102173.47;5090031;28;9567;-73
2022/04/26 15:48:13;;;;;;;;;3.00;3.00;;;;;20.39;41.52;102166.41;5090966;28;9526;-72
2022/04/26 15:50:42;;;;;;;;;1.50;1.50;;;;;20.39;41.58;102166.41;5091452;28;8841;-72